createdAt,value
2022-09-21T00:01:30.852Z,1.92
2022-09-21T00:04:01.499Z,2.20
2022-09-21T00:06:32.003Z,1.77
2022-09-21T00:08:59.690Z,2.08
2022-09-21T00:11:29.661Z,1.85
2022-09-21T00:14:04.611Z,2.00
2022-09-21T00:16:32.394Z,2.03
2022-09-21T00:19:02.198Z,1.80
2022-09-21T00:21:30.483Z,1.83
2022-09-21T00:23:59.445Z,2.00
2022-09-21T00:26:27.702Z,2.13
2022-09-21T00:28:57.611Z,1.90
2022-09-21T00:31:26.104Z,1.88
2022-09-21T00:33:53.856Z,1.80
2022-09-21T00:36:24.057Z,1.77
2022-09-21T00:38:53.725Z,1.83
2022-09-21T00:41:21.840Z,1.92
2022-09-21T00:44:27.593Z,1.70
2022-09-21T00:46:59.248Z,1.80
2022-09-21T00:49:28.239Z,1.90
2022-09-21T00:51:58.248Z,1.90
2022-09-21T00:54:39.176Z,2.28
2022-09-21T00:57:08.085Z,1.80
2022-09-21T00:59:38.642Z,2.25
2022-09-21T01:02:06.910Z,1.88
2022-09-21T01:04:35.022Z,2.30
2022-09-21T01:07:07.208Z,2.30
2022-09-21T01:09:35.232Z,2.25
2022-09-21T01:12:24.036Z,1.92
2022-09-21T01:15:13.063Z,1.95
2022-09-21T01:17:58.883Z,1.80
2022-09-21T01:20:48.150Z,1.67
2022-09-21T01:23:44.310Z,2.20
2022-09-21T01:26:36.679Z,1.53
2022-09-21T01:29:07.119Z,1.90
2022-09-21T01:31:55.463Z,1.40
2022-09-21T01:34:29.202Z,1.70
2022-09-21T01:36:59.016Z,1.65
2022-09-21T01:39:27.906Z,1.85
2022-09-21T01:41:56.347Z,1.60
2022-09-21T01:44:28.718Z,1.90
2022-09-21T01:46:57.958Z,1.70
2022-09-21T01:49:31.773Z,1.90
2022-09-21T01:52:05.733Z,1.60
2022-09-21T01:54:46.961Z,1.50
2022-09-21T01:57:26.252Z,1.50
2022-09-21T01:59:57.637Z,1.95
2022-09-21T02:02:51.515Z,1.70
2022-09-21T02:05:21.530Z,1.70
2022-09-21T02:07:50.313Z,1.77
2022-09-21T02:10:59.721Z,1.95
2022-09-21T02:13:41.563Z,1.70
2022-09-21T02:16:39.733Z,1.90
2022-09-21T02:19:28.708Z,1.90
2022-09-21T02:22:43.419Z,1.60
2022-09-21T02:25:18.290Z,1.33
2022-09-21T02:28:01.789Z,1.58
2022-09-21T02:30:30.716Z,1.40
2022-09-21T02:33:10.055Z,1.30
2022-09-21T02:35:59.172Z,1.40
2022-09-21T02:38:54.011Z,1.35
2022-09-21T02:41:29.417Z,1.40
2022-09-21T02:44:33.227Z,1.23
2022-09-21T02:47:07.956Z,1.20
2022-09-21T02:49:40.531Z,1.20
2022-09-21T02:52:15.776Z,1.10
2022-09-21T02:54:47.776Z,1.10
2022-09-21T02:57:18.098Z,1.08
2022-09-21T02:59:45.763Z,1.08
2022-09-21T03:02:13.658Z,1.25
2022-09-21T03:04:43.247Z,1.30
2022-09-21T03:07:10.692Z,1.00
2022-09-21T03:09:38.658Z,1.20
2022-09-21T03:12:06.386Z,1.20
2022-09-21T03:14:34.356Z,1.30
2022-09-21T03:17:02.837Z,1.27
2022-09-21T03:19:30.607Z,1.30
2022-09-21T03:21:58.199Z,0.93
2022-09-21T03:24:44.090Z,1.27
2022-09-21T03:27:12.569Z,1.08
2022-09-21T03:29:40.319Z,1.10
2022-09-21T03:32:07.951Z,1.08
2022-09-21T03:34:36.274Z,1.30
2022-09-21T03:37:06.388Z,0.90
2022-09-21T03:39:34.008Z,1.10
2022-09-21T03:42:02.700Z,1.33
2022-09-21T03:44:30.253Z,1.17
2022-09-21T03:46:58.280Z,1.20
2022-09-21T03:49:26.344Z,1.10
2022-09-21T03:51:55.219Z,0.90
2022-09-21T03:54:22.746Z,1.00
2022-09-21T03:56:50.240Z,1.00
2022-09-21T03:59:17.967Z,0.93
2022-09-21T04:01:45.590Z,1.20
2022-09-21T04:04:13.187Z,1.13
2022-09-21T04:06:41.362Z,1.23
2022-09-21T04:09:08.951Z,0.98
2022-09-21T04:11:36.550Z,1.20
2022-09-21T04:14:05.312Z,1.13
2022-09-21T04:16:32.867Z,1.00
2022-09-21T04:19:00.448Z,1.30
2022-09-21T04:21:28.089Z,0.82
2022-09-21T04:23:55.712Z,1.00
2022-09-21T04:26:24.909Z,1.23
2022-09-21T04:28:56.042Z,1.20
2022-09-21T04:31:25.301Z,0.98
2022-09-21T04:33:54.038Z,1.30
2022-09-21T04:36:23.440Z,1.20
2022-09-21T04:38:51.970Z,1.10
2022-09-21T04:41:19.685Z,1.40
2022-09-21T04:43:48.576Z,1.02
2022-09-21T04:46:18.595Z,1.15
2022-09-21T04:48:47.412Z,1.10
2022-09-21T04:51:16.886Z,1.10
2022-09-21T04:53:44.866Z,1.20
2022-09-21T04:56:15.287Z,1.08
2022-09-21T04:58:43.254Z,1.17
2022-09-21T05:01:11.837Z,1.30
2022-09-21T05:03:39.807Z,1.10
2022-09-21T05:06:07.948Z,1.13
2022-09-21T05:08:54.118Z,1.20
2022-09-21T05:11:21.732Z,1.02
2022-09-21T05:13:49.394Z,1.00
2022-09-21T05:16:18.226Z,1.35
2022-09-21T05:18:46.556Z,1.25
2022-09-21T05:21:14.994Z,1.20
2022-09-21T05:23:42.499Z,1.15
2022-09-21T05:26:10.215Z,1.00
2022-09-21T05:28:40.252Z,1.02
2022-09-21T05:31:39.306Z,0.95
2022-09-21T05:34:07.525Z,0.80
2022-09-21T05:36:45.407Z,1.10
2022-09-21T05:39:13.474Z,1.25
2022-09-21T05:41:41.284Z,1.17
2022-09-21T05:44:16.383Z,1.00
2022-09-21T05:47:01.914Z,0.95
2022-09-21T05:49:37.754Z,1.20
2022-09-21T05:52:23.951Z,0.93
2022-09-21T05:55:28.844Z,1.35
2022-09-21T05:58:37.873Z,1.10
2022-09-21T06:01:26.334Z,1.48
2022-09-21T06:03:55.476Z,1.15
2022-09-21T06:06:23.023Z,0.95
2022-09-21T06:08:50.825Z,1.10
2022-09-21T06:11:18.559Z,1.30
2022-09-21T06:13:46.115Z,1.10
2022-09-21T06:16:14.440Z,1.30
2022-09-21T06:18:42.561Z,1.00
2022-09-21T06:21:10.641Z,1.20
2022-09-21T06:23:38.513Z,1.35
2022-09-21T06:26:06.428Z,1.08
2022-09-21T06:28:34.229Z,1.13
2022-09-21T06:31:01.857Z,1.25
2022-09-21T06:33:29.564Z,1.45
2022-09-21T06:35:59.273Z,0.93
2022-09-21T06:38:29.152Z,1.00
2022-09-21T06:41:02.186Z,1.20
2022-09-21T06:43:29.835Z,1.20
2022-09-21T06:45:59.770Z,1.05
2022-09-21T06:48:29.258Z,1.63
2022-09-21T06:51:01.678Z,1.20
2022-09-21T06:53:30.518Z,1.20
2022-09-21T06:56:05.965Z,1.15
2022-09-21T06:58:34.727Z,1.25
2022-09-21T07:01:12.964Z,1.05
2022-09-21T07:03:43.386Z,1.10
2022-09-21T07:06:14.120Z,4.80
2022-09-21T07:11:30.854Z,3.10
2022-09-21T07:13:58.716Z,3.72
2022-09-21T07:16:26.313Z,2.80
2022-09-21T07:18:53.919Z,2.20
2022-09-21T07:21:21.909Z,1.80
2022-09-21T07:23:49.533Z,1.70
2022-09-21T07:26:17.231Z,1.60
2022-09-21T07:28:44.891Z,1.42
2022-09-21T07:31:14.669Z,1.42
2022-09-21T07:33:43.493Z,1.85
2022-09-21T07:36:13.133Z,1.63
2022-09-21T07:38:42.959Z,2.00
2022-09-21T07:41:15.534Z,1.50
2022-09-21T07:43:43.099Z,2.30
2022-09-21T07:46:13.012Z,1.60
2022-09-21T07:48:41.064Z,1.90
2022-09-21T07:51:11.511Z,1.73
2022-09-21T07:53:41.348Z,1.95
2022-09-21T07:56:12.106Z,1.95
2022-09-21T07:58:59.451Z,1.98
2022-09-21T08:01:27.857Z,1.60
2022-09-21T08:03:58.570Z,1.58
2022-09-21T08:06:29.323Z,2.05
2022-09-21T08:08:58.183Z,1.70
2022-09-21T08:11:27.629Z,2.00
2022-09-21T08:13:58.363Z,1.90
2022-09-21T08:16:29.161Z,1.67
2022-09-21T08:18:57.298Z,1.70
2022-09-21T08:21:24.801Z,2.03
2022-09-21T08:23:52.441Z,1.92
2022-09-21T08:26:20.654Z,1.90
2022-09-21T08:28:51.541Z,1.73
2022-09-21T08:31:21.808Z,2.35
2022-09-21T08:33:50.693Z,2.40
2022-09-21T08:36:19.665Z,2.70
2022-09-21T08:38:48.164Z,2.20
2022-09-21T08:41:44.731Z,2.63
2022-09-21T08:44:24.724Z,2.50
2022-09-21T08:47:11.543Z,2.67
2022-09-21T08:49:41.052Z,2.00
2022-09-21T08:52:19.408Z,2.28
2022-09-21T08:55:06.110Z,1.90
2022-09-21T08:57:34.712Z,2.40
2022-09-21T09:00:07.079Z,2.50
2022-09-21T09:03:25.477Z,2.88
2022-09-21T09:06:07.516Z,2.50
2022-09-21T09:08:56.434Z,2.17
2022-09-21T09:11:32.998Z,2.40
2022-09-21T09:14:31.212Z,2.10
2022-09-21T09:17:16.150Z,2.40
2022-09-21T09:19:47.397Z,3.65
2022-09-21T09:22:25.927Z,3.05
2022-09-21T09:24:58.396Z,3.35
2022-09-21T09:27:34.027Z,3.03
2022-09-21T09:30:23.908Z,4.15
2022-09-21T09:33:03.593Z,4.18
2022-09-21T09:35:36.474Z,4.10
2022-09-21T09:38:29.783Z,4.00
2022-09-21T09:41:22.504Z,4.25
2022-09-21T09:43:56.182Z,5.15
2022-09-21T09:46:43.215Z,5.55
2022-09-21T09:49:42.989Z,4.40
2022-09-21T09:52:14.999Z,4.43
2022-09-21T09:54:44.303Z,4.95
2022-09-21T09:57:13.273Z,4.72
2022-09-21T09:59:55.501Z,6.22
2022-09-21T10:02:25.909Z,5.50
2022-09-21T10:05:06.247Z,5.22
2022-09-21T10:07:37.451Z,5.30
2022-09-21T10:10:27.055Z,6.05
2022-09-21T10:12:56.402Z,5.55
2022-09-21T10:15:27.088Z,5.55
2022-09-21T10:18:11.380Z,5.22
2022-09-21T10:20:38.952Z,4.60
2022-09-21T10:23:06.622Z,4.78
2022-09-21T10:25:39.484Z,3.72
2022-09-21T10:28:12.172Z,5.40
2022-09-21T10:30:39.783Z,4.57
2022-09-21T10:33:25.386Z,5.20
2022-09-21T10:35:53.525Z,4.73
2022-09-21T10:38:29.409Z,4.90
2022-09-21T10:40:57.409Z,4.25
2022-09-21T10:43:43.590Z,4.28
2022-09-21T10:46:12.211Z,4.05
2022-09-21T10:48:39.784Z,4.65
2022-09-21T10:51:26.816Z,4.55
2022-09-21T10:53:54.738Z,4.53
2022-09-21T10:56:22.558Z,3.90
2022-09-21T10:59:12.976Z,4.00
2022-09-21T11:01:52.680Z,4.25
2022-09-21T11:04:31.087Z,4.68
2022-09-21T11:07:09.620Z,3.63
2022-09-21T11:09:44.039Z,4.47
2022-09-21T11:12:11.601Z,4.93
2022-09-21T11:14:41.964Z,4.38
2022-09-21T11:17:32.729Z,3.95
2022-09-21T11:20:20.872Z,3.75
2022-09-21T11:23:37.868Z,4.30
2022-09-21T11:26:05.770Z,3.75
2022-09-21T11:28:41.011Z,4.50
2022-09-21T11:31:21.545Z,4.00
2022-09-21T11:33:56.209Z,3.92
2022-09-21T11:36:32.695Z,3.80
2022-09-21T11:39:47.582Z,3.60
2022-09-21T11:42:41.727Z,3.40
2022-09-21T11:45:36.710Z,3.38
2022-09-21T11:48:15.497Z,3.17
2022-09-21T11:51:20.702Z,3.40
2022-09-21T11:54:26.901Z,3.53
2022-09-21T11:57:09.629Z,3.80
2022-09-21T12:00:25.141Z,3.42
2022-09-21T12:03:23.886Z,3.85
2022-09-21T12:06:12.968Z,3.17
2022-09-21T12:09:12.518Z,3.75
2022-09-21T12:11:51.891Z,3.47
2022-09-21T12:14:28.609Z,3.70
2022-09-21T12:17:16.630Z,3.45
2022-09-21T12:20:17.404Z,3.38
2022-09-21T12:22:48.528Z,3.70
2022-09-21T12:25:22.007Z,3.33
2022-09-21T12:27:56.618Z,3.47
2022-09-21T12:30:24.581Z,3.40
2022-09-21T12:33:19.383Z,4.15
2022-09-21T12:35:59.225Z,3.35
2022-09-21T12:38:44.459Z,4.50
2022-09-21T12:41:41.922Z,3.85
2022-09-21T12:44:52.034Z,4.50
2022-09-21T12:47:29.077Z,4.82
2022-09-21T12:50:05.719Z,4.90
2022-09-21T12:52:34.989Z,4.43
2022-09-21T12:55:21.889Z,5.28
2022-09-21T12:58:16.559Z,5.03
2022-09-21T13:01:15.114Z,4.70
2022-09-21T13:03:45.545Z,4.88
2022-09-21T13:06:38.989Z,4.55
2022-09-21T13:09:13.299Z,5.05
2022-09-21T13:11:56.766Z,6.07
2022-09-21T13:14:27.780Z,5.05
2022-09-21T13:16:58.691Z,6.13
2022-09-21T13:19:29.210Z,4.93
2022-09-21T13:22:16.135Z,4.75
2022-09-21T13:24:45.647Z,4.55
2022-09-21T13:27:13.953Z,4.20
2022-09-21T13:29:43.154Z,4.63
2022-09-21T13:32:14.044Z,5.03
2022-09-21T13:34:43.594Z,5.15
2022-09-21T13:37:20.126Z,4.85
2022-09-21T13:40:03.221Z,4.57
2022-09-21T13:42:30.949Z,4.90
2022-09-21T13:45:24.294Z,3.50
2022-09-21T13:48:00.231Z,4.20
2022-09-21T13:53:28.627Z,4.93
2022-09-21T13:56:02.134Z,4.00
2022-09-21T13:58:36.256Z,4.43
2022-09-21T14:01:09.888Z,4.38
2022-09-21T14:04:02.615Z,4.80
2022-09-21T14:06:47.516Z,4.32
2022-09-21T14:09:38.615Z,4.35
2022-09-21T14:12:13.239Z,4.63
2022-09-21T14:14:41.598Z,4.63
2022-09-21T14:17:35.582Z,4.75
2022-09-21T14:20:05.573Z,4.60
2022-09-21T14:22:34.671Z,4.72
2022-09-21T14:25:25.853Z,4.22
2022-09-21T14:27:58.382Z,4.07
2022-09-21T14:30:29.585Z,4.93
2022-09-21T14:32:59.925Z,4.60
2022-09-21T14:35:33.839Z,4.82
2022-09-21T14:38:10.868Z,5.38
2022-09-21T14:40:42.371Z,4.38
2022-09-21T14:43:29.675Z,4.82
2022-09-21T14:46:32.213Z,4.90
2022-09-21T14:49:09.191Z,5.20
2022-09-21T14:52:18.322Z,5.00
2022-09-21T14:55:20.359Z,4.45
2022-09-21T14:58:12.203Z,4.65
2022-09-21T15:00:45.771Z,4.40
2022-09-21T15:03:46.497Z,5.40
2022-09-21T15:07:00.286Z,3.92
2022-09-21T15:10:21.698Z,4.60
2022-09-21T15:13:00.922Z,4.40
2022-09-21T15:15:51.805Z,3.78
2022-09-21T15:18:23.270Z,4.10
2022-09-21T15:21:03.537Z,3.65
2022-09-21T15:23:41.652Z,4.18
2022-09-21T15:26:26.896Z,4.13
2022-09-21T15:29:09.241Z,3.95
2022-09-21T15:31:42.724Z,4.45
2022-09-21T15:34:13.742Z,3.83
2022-09-21T15:36:43.449Z,4.72
2022-09-21T15:39:30.571Z,4.20
2022-09-21T15:42:22.882Z,4.30
2022-09-21T15:45:06.203Z,3.63
2022-09-21T15:47:34.498Z,4.45
2022-09-21T15:50:02.219Z,3.70
2022-09-21T15:52:35.226Z,3.35
2022-09-21T15:55:11.997Z,3.92
2022-09-21T15:57:43.175Z,4.20
2022-09-21T16:00:17.730Z,4.05
2022-09-21T16:03:04.948Z,4.05
2022-09-21T16:05:50.672Z,3.70
2022-09-21T16:08:40.156Z,3.63
2022-09-21T16:11:12.293Z,3.10
2022-09-21T16:13:59.134Z,3.70
2022-09-21T16:16:27.292Z,3.50
2022-09-21T16:18:58.606Z,3.38
2022-09-21T16:21:37.796Z,3.22
2022-09-21T16:24:18.049Z,3.45
2022-09-21T16:27:00.984Z,4.07
2022-09-21T16:29:43.575Z,3.90
2022-09-21T16:32:27.699Z,3.42
2022-09-21T16:35:17.914Z,4.20
2022-09-21T16:37:45.472Z,3.95
2022-09-21T16:40:14.245Z,3.50
2022-09-21T16:42:43.255Z,3.53
2022-09-21T16:45:23.040Z,3.97
2022-09-21T16:47:52.264Z,3.83
2022-09-21T16:50:20.232Z,3.67
2022-09-21T16:52:52.513Z,3.67
2022-09-21T16:55:24.339Z,4.05
2022-09-21T16:57:54.553Z,3.10
2022-09-21T17:00:22.367Z,3.33
2022-09-21T17:02:50.030Z,3.50
2022-09-21T17:05:20.769Z,3.47
2022-09-21T17:07:59.118Z,2.72
2022-09-21T17:10:34.692Z,3.38
2022-09-21T17:13:50.408Z,2.78
2022-09-21T17:16:20.328Z,2.88
2022-09-21T17:18:49.018Z,2.42
2022-09-21T17:21:17.036Z,2.47
2022-09-21T17:23:45.417Z,2.60
2022-09-21T17:26:19.418Z,2.80
2022-09-21T17:28:47.145Z,2.50
2022-09-21T17:31:19.005Z,2.47
2022-09-21T17:33:50.286Z,2.88
2022-09-21T17:36:19.051Z,2.33
2022-09-21T17:38:46.816Z,2.38
2022-09-21T17:41:40.115Z,2.03
2022-09-21T17:44:18.196Z,1.95
2022-09-21T17:46:54.303Z,2.20
2022-09-21T17:52:08.099Z,2.40
2022-09-21T17:57:40.482Z,2.33
2022-09-21T18:00:14.157Z,2.15
2022-09-21T18:02:41.920Z,2.13
2022-09-21T18:05:25.820Z,2.22
2022-09-21T18:07:53.694Z,2.38
2022-09-21T18:10:23.322Z,2.47
2022-09-21T18:13:28.549Z,2.63
2022-09-21T18:16:03.871Z,2.55
2022-09-21T18:18:31.854Z,2.28
2022-09-21T18:21:21.581Z,2.47
2022-09-21T18:23:49.058Z,2.13
2022-09-21T18:26:18.175Z,2.50
2022-09-21T18:28:59.538Z,3.15
2022-09-21T18:31:43.889Z,2.55
2022-09-21T18:34:29.202Z,2.80
2022-09-21T18:37:17.840Z,2.47
2022-09-21T18:40:09.293Z,2.63
2022-09-21T18:42:54.113Z,3.38
2022-09-21T18:45:27.275Z,2.55
2022-09-21T18:48:10.504Z,2.53
2022-09-21T18:51:03.461Z,2.63
2022-09-21T18:53:47.516Z,3.17
2022-09-21T18:56:15.695Z,2.95
2022-09-21T18:58:43.742Z,3.17
2022-09-21T19:01:17.019Z,3.20
2022-09-21T19:03:45.671Z,2.92
2022-09-21T19:06:28.973Z,2.58
2022-09-21T19:09:09.010Z,2.88
2022-09-21T19:11:45.683Z,2.67
2022-09-21T19:14:29.922Z,2.88
2022-09-21T19:17:18.268Z,3.33
2022-09-21T19:20:24.270Z,3.15
2022-09-21T19:23:12.108Z,3.38
2022-09-21T19:25:54.105Z,3.20
2022-09-21T19:29:03.257Z,3.70
2022-09-21T19:31:31.196Z,3.42
2022-09-21T19:33:59.075Z,3.70
2022-09-21T19:36:26.842Z,3.30
2022-09-21T19:38:54.609Z,3.42
2022-09-21T19:41:50.660Z,3.10
2022-09-21T19:44:36.687Z,4.10
2022-09-21T19:47:42.693Z,4.15
2022-09-21T19:50:21.053Z,3.20
2022-09-21T19:52:49.028Z,4.28
2022-09-21T19:55:39.650Z,4.25
2022-09-21T19:58:26.332Z,4.13
2022-09-21T20:00:56.789Z,3.40
2022-09-21T20:03:35.999Z,3.50
2022-09-21T20:06:18.631Z,3.85
2022-09-21T20:09:06.364Z,3.45
2022-09-21T20:11:47.281Z,3.08
2022-09-21T20:14:20.508Z,3.65
2022-09-21T20:16:54.196Z,2.88
2022-09-21T20:19:34.155Z,2.97
2022-09-21T20:22:17.011Z,3.30
2022-09-21T20:24:50.723Z,3.40
2022-09-21T20:27:36.048Z,3.72
2022-09-21T20:30:07.227Z,3.08
2022-09-21T20:32:37.447Z,2.30
2022-09-21T20:35:20.348Z,2.92
2022-09-21T20:37:48.335Z,2.83
2022-09-21T20:40:16.368Z,3.40
2022-09-21T20:42:44.349Z,2.83
2022-09-21T20:45:13.407Z,2.88
2022-09-21T20:47:41.219Z,3.10
2022-09-21T20:50:12.033Z,2.90
2022-09-21T20:52:41.542Z,3.03
2022-09-21T20:55:13.542Z,2.75
2022-09-21T20:57:41.310Z,3.08
2022-09-21T21:00:11.820Z,2.65
2022-09-21T21:02:39.718Z,2.88
2022-09-21T21:05:08.266Z,2.80
2022-09-21T21:07:36.481Z,2.78
2022-09-21T21:10:04.454Z,2.33
2022-09-21T21:12:32.484Z,2.28
2022-09-21T21:15:00.061Z,2.20
2022-09-21T21:17:27.619Z,2.67
2022-09-21T21:19:55.213Z,2.55
2022-09-21T21:22:22.699Z,2.33
2022-09-21T21:24:50.192Z,2.33
2022-09-21T21:27:21.074Z,2.33
2022-09-21T21:29:51.048Z,2.30
2022-09-21T21:32:21.265Z,2.13
2022-09-21T21:34:50.524Z,2.40
2022-09-21T21:37:20.124Z,2.45
2022-09-21T21:39:48.304Z,2.05
2022-09-21T21:42:18.196Z,2.10
2022-09-21T21:44:46.745Z,2.30
2022-09-21T21:47:38.274Z,2.67
2022-09-21T21:50:02.178Z,2.60
2022-09-21T21:52:30.432Z,2.55
2022-09-21T21:54:57.876Z,2.65
2022-09-21T21:57:25.368Z,2.50
2022-09-21T21:59:53.197Z,2.35
2022-09-21T22:02:20.978Z,2.92
2022-09-21T22:04:48.508Z,2.95
2022-09-21T22:07:16.095Z,2.50
2022-09-21T22:09:43.536Z,2.40
2022-09-21T22:12:12.020Z,2.38
2022-09-21T22:14:39.811Z,2.58
2022-09-21T22:17:07.350Z,2.60
2022-09-21T22:19:35.247Z,2.55
2022-09-21T22:22:02.785Z,2.60
2022-09-21T22:24:30.343Z,2.70
2022-09-21T22:26:58.096Z,2.72
2022-09-21T22:29:25.757Z,2.72
2022-09-21T22:31:55.536Z,2.50
2022-09-21T22:34:24.657Z,2.10
2022-09-21T22:36:52.228Z,2.80
2022-09-21T22:39:19.988Z,2.88
2022-09-21T22:41:47.519Z,2.35
2022-09-21T22:44:15.266Z,2.50
2022-09-21T22:46:42.840Z,2.42
2022-09-21T22:49:10.465Z,2.20
2022-09-21T22:51:39.087Z,2.45
2022-09-21T22:54:06.908Z,2.20
2022-09-21T22:56:34.976Z,1.90
2022-09-21T22:59:04.518Z,2.60
2022-09-21T23:01:38.505Z,2.28
2022-09-21T23:04:09.301Z,2.22
2022-09-21T23:06:38.830Z,2.38
2022-09-21T23:09:14.327Z,2.10
2022-09-21T23:11:43.711Z,1.95
2022-09-21T23:14:12.907Z,1.95
2022-09-21T23:16:41.311Z,1.85
2022-09-21T23:19:15.874Z,2.13
2022-09-21T23:21:51.478Z,1.70
2022-09-21T23:24:20.311Z,1.73
2022-09-21T23:26:48.074Z,1.98
2022-09-21T23:29:16.588Z,1.67
2022-09-21T23:31:45.715Z,1.77
2022-09-21T23:34:15.114Z,1.90
2022-09-21T23:36:43.497Z,1.90
2022-09-21T23:39:13.104Z,1.73
2022-09-21T23:41:44.243Z,1.80
2022-09-21T23:44:12.013Z,1.60
2022-09-21T23:46:40.601Z,1.70
2022-09-21T23:49:08.481Z,2.47
2022-09-21T23:51:36.515Z,2.05
2022-09-21T23:54:05.030Z,2.15
2022-09-21T23:56:33.206Z,1.73
2022-09-21T23:59:00.838Z,2.30
